Time;durP1;ratioP1;P1;durP2;ratioP2;P2;SDS_P1;SDS_P2;PMS_P1;PMS_P2;Temp;Humidity;BMP_temperature;BMP_pressure;BME280_temperature;BME280_humidity;BME280_pressure;Samples;Min_cycle;Max_cycle;Signal;HPM_P1;HPM_P2
2021/09/29 00:02:25;;;;;;;8.57;4.15;;;15.40;76.40;;;;;;5088518;28;20474;-71
2021/09/29 00:04:51;;;;;;;6.97;3.72;;;15.30;77.10;;;;;;5084944;28;20028;-70
2021/09/29 00:07:17;;;;;;;10.35;4.10;;;15.30;76.50;;;;;;5087884;28;20028;-71
2021/09/29 00:09:43;;;;;;;9.02;3.83;;;15.30;76.40;;;;;;5083642;28;20028;-71
2021/09/29 00:12:09;;;;;;;8.00;3.90;;;15.30;76.60;;;;;;5086629;28;20036;-72
2021/09/29 00:14:35;;;;;;;9.30;4.10;;;15.30;76.60;;;;;;5070689;28;20036;-72
2021/09/29 00:17:01;;;;;;;7.93;3.80;;;15.30;76.70;;;;;;5067382;28;20486;-72
2021/09/29 00:19:27;;;;;;;9.00;4.00;;;15.30;76.70;;;;;;5088977;28;20119;-72
2021/09/29 00:21:52;;;;;;;9.57;4.80;;;15.30;76.80;;;;;;5086356;28;20055;-70
2021/09/29 00:24:18;;;;;;;7.10;4.10;;;15.30;76.90;;;;;;5067640;28;20111;-72
2021/09/29 00:26:44;;;;;;;8.77;4.40;;;15.30;76.90;;;;;;5069735;28;20492;-71
2021/09/29 00:29:10;;;;;;;8.32;4.18;;;15.20;76.90;;;;;;5053852;28;20055;-72
2021/09/29 00:31:37;;;;;;;9.45;4.20;;;15.20;77.00;;;;;;5067897;28;20474;-72
2021/09/29 00:36:38;;;;;;;9.40;4.72;;;15.30;77.20;;;;;;5087363;28;20052;-71
2021/09/29 00:39:05;;;;;;;7.03;3.80;;;15.20;77.10;;;;;;5074869;28;20401;-71
2021/09/29 00:41:31;;;;;;;7.90;4.28;;;15.20;77.20;;;;;;5087974;28;20024;-71
2021/09/29 00:43:57;;;;;;;8.52;4.22;;;15.20;77.40;;;;;;5067817;28;20489;-71
2021/09/29 00:46:23;;;;;;;6.88;3.92;;;15.20;77.50;;;;;;5083988;28;20032;-70
2021/09/29 00:48:48;;;;;;;8.18;3.72;;;15.30;77.60;;;;;;5088456;28;20168;-71
2021/09/29 00:51:14;;;;;;;8.00;3.55;;;15.30;77.80;;;;;;5078300;28;20056;-72
2021/09/29 00:53:41;;;;;;;8.85;4.15;;;15.30;77.70;;;;;;5069855;28;20643;-72
2021/09/29 00:56:08;;;;;;;9.98;3.90;;;15.30;77.70;;;;;;5084014;28;20063;-70
2021/09/29 00:58:34;;;;;;;8.40;3.95;;;15.20;77.70;;;;;;5066706;28;20549;-71
2021/09/29 01:01:00;;;;;;;8.50;3.65;;;15.20;77.80;;;;;;5088274;28;20174;-71
2021/09/29 01:03:26;;;;;;;6.75;3.33;;;15.20;77.80;;;;;;5082235;28;20533;-72
2021/09/29 01:05:56;;;;;;;9.27;4.10;;;15.30;77.70;;;;;;5086792;28;20032;-72
2021/09/29 01:08:55;;;;;;;7.82;3.60;;;15.20;77.70;;;;;;5084606;28;20035;-72
2021/09/29 01:12:01;;;;;;;7.88;3.33;;;15.20;77.80;;;;;;5082756;28;20384;-72
2021/09/29 01:14:45;;;;;;;9.52;3.60;;;15.20;77.90;;;;;;5068187;28;20036;-72
2021/09/29 01:17:14;;;;;;;8.20;4.00;;;15.20;78.00;;;;;;5083096;28;20383;-72
2021/09/29 01:20:02;;;;;;;9.27;4.03;;;15.20;78.10;;;;;;5078956;28;20021;-72
2021/09/29 01:22:53;;;;;;;8.07;3.88;;;15.20;77.90;;;;;;5082909;28;20357;-72
2021/09/29 01:25:25;;;;;;;9.68;3.80;;;15.20;78.10;;;;;;5082993;28;20052;-72
2021/09/29 01:27:51;;;;;;;7.10;3.80;;;15.20;78.30;;;;;;5084290;28;20028;-73
2021/09/29 01:30:17;;;;;;;8.73;3.72;;;15.20;78.80;;;;;;5065385;28;20024;-72
2021/09/29 01:32:43;;;;;;;5.82;3.83;;;15.20;78.20;;;;;;5077800;28;20115;-72
2021/09/29 01:35:09;;;;;;;8.60;4.30;;;15.10;78.10;;;;;;5084900;28;20102;-72
2021/09/29 01:37:35;;;;;;;5.95;3.67;;;15.10;78.00;;;;;;5084096;28;20646;-72
2021/09/29 01:40:02;;;;;;;9.18;3.85;;;15.10;78.00;;;;;;5082367;28;20021;-72
2021/09/29 01:42:28;;;;;;;8.02;4.30;;;15.10;77.80;;;;;;5067981;28;20084;-71
2021/09/29 01:44:53;;;;;;;10.98;4.15;;;15.10;77.90;;;;;;5088921;28;20475;-71
2021/09/29 01:47:19;;;;;;;10.15;4.35;;;15.10;77.80;;;;;;5090231;28;20056;-70
2021/09/29 01:49:49;;;;;;;6.93;4.30;;;15.00;77.80;;;;;;5056221;28;20139;-71
2021/09/29 01:52:20;;;;;;;11.77;4.95;;;15.00;77.70;;;;;;5090079;28;20024;-71
2021/09/29 01:54:47;;;;;;;7.75;4.43;;;15.00;77.90;;;;;;5070965;28;20032;-71
2021/09/29 01:57:13;;;;;;;11.10;5.60;;;14.90;77.80;;;;;;5089067;28;20054;-70
2021/09/29 01:59:41;;;;;;;8.40;4.45;;;14.90;77.70;;;;;;5054543;28;20040;-71
2021/09/29 02:02:07;;;;;;;6.72;4.75;;;14.90;77.80;;;;;;5068659;28;20024;-71
2021/09/29 02:04:32;;;;;;;7.05;4.53;;;14.90;77.90;;;;;;5054075;28;20106;-71
2021/09/29 02:06:58;;;;;;;11.63;5.97;;;14.90;77.90;;;;;;5087455;28;20062;-71
2021/09/29 02:09:26;;;;;;;6.60;4.47;;;14.90;77.80;;;;;;5084382;28;20039;-72
2021/09/29 02:11:54;;;;;;;9.25;4.60;;;14.80;77.70;;;;;;5070652;28;20043;-72
2021/09/29 02:14:22;;;;;;;9.98;4.97;;;14.80;77.80;;;;;;5088386;28;20035;-72
2021/09/29 02:16:53;;;;;;;9.98;5.35;;;14.80;77.80;;;;;;5083043;28;20486;-72
2021/09/29 02:19:20;;;;;;;8.90;4.97;;;14.80;77.90;;;;;;5081974;28;20024;-72
2021/09/29 02:21:47;;;;;;;7.95;5.20;;;14.70;77.90;;;;;;5071447;28;20039;-71
2021/09/29 02:24:13;;;;;;;12.35;5.30;;;14.70;77.80;;;;;;5090303;28;20056;-71
2021/09/29 02:26:39;;;;;;;6.90;4.72;;;14.70;77.70;;;;;;5089574;28;20062;-71
2021/09/29 02:29:06;;;;;;;10.80;5.38;;;14.70;77.90;;;;;;5086405;28;20402;-71
2021/09/29 02:31:33;;;;;;;10.10;5.00;;;14.70;77.90;;;;;;5069963;28;20025;-71
2021/09/29 02:33:59;;;;;;;7.28;5.20;;;14.70;78.10;;;;;;5068570;28;20162;-71
2021/09/29 02:36:25;;;;;;;8.65;5.30;;;14.70;78.00;;;;;;5070536;28;20080;-70
2021/09/29 02:38:51;;;;;;;9.02;4.78;;;14.60;77.80;;;;;;5056053;28;20031;-71
2021/09/29 02:41:19;;;;;;;8.65;5.13;;;14.60;77.80;;;;;;5069566;28;20089;-72
2021/09/29 02:43:45;;;;;;;9.88;5.28;;;14.60;77.80;;;;;;5086218;28;20153;-72
2021/09/29 02:46:11;;;;;;;9.45;5.00;;;14.60;78.00;;;;;;5082209;28;20074;-72
2021/09/29 02:48:37;;;;;;;8.32;5.18;;;14.60;78.10;;;;;;5089227;28;20032;-72
2021/09/29 02:51:03;;;;;;;8.27;5.32;;;14.50;78.10;;;;;;5085241;28;20221;-72
2021/09/29 02:53:29;;;;;;;8.45;5.30;;;14.50;78.00;;;;;;5045001;28;20028;-72
2021/09/29 02:56:00;;;;;;;10.60;5.53;;;14.50;77.90;;;;;;5086696;28;20535;-72
2021/09/29 02:58:27;;;;;;;11.80;5.50;;;14.50;77.90;;;;;;5080851;28;20020;-72
2021/09/29 03:00:54;;;;;;;8.10;5.30;;;14.50;77.90;;;;;;5082593;28;20024;-72
2021/09/29 03:03:21;;;;;;;8.55;5.07;;;14.50;77.90;;;;;;5079756;28;20082;-72
2021/09/29 03:05:48;;;;;;;7.50;4.88;;;14.50;77.90;;;;;;5086887;28;20596;-72
2021/09/29 03:08:14;;;;;;;8.02;5.20;;;14.50;77.90;;;;;;5085597;28;20028;-72
2021/09/29 03:10:41;;;;;;;7.63;5.40;;;14.50;78.00;;;;;;5086270;28;20453;-72
2021/09/29 03:13:11;;;;;;;10.30;5.20;;;14.40;78.00;;;;;;5085226;28;20028;-72
2021/09/29 03:15:37;;;;;;;8.75;5.00;;;14.40;78.10;;;;;;5067959;28;20551;-72
2021/09/29 03:18:04;;;;;;;7.53;5.55;;;14.40;78.10;;;;;;5086494;28;20131;-72
2021/09/29 03:20:31;;;;;;;7.25;5.68;;;14.40;78.00;;;;;;5055073;28;20036;-72
2021/09/29 03:22:57;;;;;;;9.40;5.80;;;14.30;78.00;;;;;;5069146;28;20115;-71
2021/09/29 03:25:24;;;;;;;10.32;5.80;;;14.40;78.10;;;;;;5070750;28;20147;-71
2021/09/29 03:27:50;;;;;;;9.35;5.20;;;14.30;78.20;;;;;;5084846;28;20386;-71
2021/09/29 03:30:16;;;;;;;9.13;5.95;;;14.30;78.30;;;;;;5085074;28;20166;-71
2021/09/29 03:32:43;;;;;;;7.82;5.20;;;14.30;78.40;;;;;;5082876;28;20089;-71
2021/09/29 03:35:10;;;;;;;7.78;5.13;;;14.20;78.50;;;;;;5070236;28;20059;-72
2021/09/29 03:37:36;;;;;;;5.50;4.47;;;14.20;78.50;;;;;;5086943;28;20028;-72
2021/09/29 03:40:04;;;;;;;8.00;5.60;;;14.20;78.30;;;;;;5069542;28;20024;-72
2021/09/29 03:42:30;;;;;;;7.82;5.40;;;14.20;78.30;;;;;;5065579;28;20043;-72
2021/09/29 03:44:55;;;;;;;10.85;4.97;;;14.20;78.30;;;;;;5087984;28;20025;-72
2021/09/29 03:47:21;;;;;;;8.20;5.00;;;14.20;78.30;;;;;;5074933;28;20042;-72
2021/09/29 03:49:47;;;;;;;7.35;4.80;;;14.20;78.30;;;;;;5076469;28;20223;-72
2021/09/29 03:52:13;;;;;;;9.23;5.13;;;14.20;78.30;;;;;;5038036;28;20032;-72
2021/09/29 03:54:38;;;;;;;8.07;5.22;;;14.20;78.30;;;;;;5073572;28;20486;-72
2021/09/29 03:57:05;;;;;;;8.38;4.63;;;14.20;78.40;;;;;;5089239;28;20450;-72
2021/09/29 03:59:31;;;;;;;6.28;4.47;;;14.20;78.40;;;;;;5095129;28;20012;-72
2021/09/29 04:01:57;;;;;;;7.47;4.68;;;14.20;78.50;;;;;;5075294;28;20422;-72
2021/09/29 04:04:23;;;;;;;9.38;4.65;;;14.20;78.40;;;;;;5089844;28;20028;-72
2021/09/29 04:06:49;;;;;;;7.53;4.75;;;14.20;78.40;;;;;;5094542;28;20038;-72
2021/09/29 04:09:15;;;;;;;7.30;4.70;;;14.10;78.40;;;;;;5069205;28;20024;-72
2021/09/29 04:11:41;;;;;;;7.22;4.78;;;14.10;78.50;;;;;;5074706;28;20458;-72
2021/09/29 04:14:07;;;;;;;9.82;5.57;;;14.10;78.50;;;;;;5086430;28;20029;-72
2021/09/29 04:16:34;;;;;;;9.40;5.18;;;14.10;78.60;;;;;;5089671;28;20483;-72
2021/09/29 04:19:01;;;;;;;7.35;5.07;;;14.10;78.70;;;;;;5056232;28;20916;-71
2021/09/29 04:21:27;;;;;;;7.47;4.70;;;14.10;78.90;;;;;;5078507;28;20118;-72
2021/09/29 04:23:53;;;;;;;7.82;4.97;;;14.20;79.00;;;;;;5071805;28;20052;-72
2021/09/29 04:26:18;;;;;;;7.75;4.78;;;14.20;79.20;;;;;;5072213;28;20050;-72
2021/09/29 04:28:44;;;;;;;8.77;4.82;;;14.20;79.40;;;;;;5098449;28;20034;-72
2021/09/29 04:31:10;;;;;;;9.95;5.20;;;14.20;79.60;;;;;;5082592;28;20054;-72
2021/09/29 04:33:36;;;;;;;8.30;5.10;;;14.20;79.70;;;;;;5054721;28;20146;-72
2021/09/29 04:36:03;;;;;;;9.05;5.45;;;14.20;79.80;;;;;;5068407;28;20048;-72
2021/09/29 04:38:29;;;;;;;9.90;5.28;;;14.20;80.10;;;;;;5077606;28;20024;-72
2021/09/29 04:40:55;;;;;;;14.98;5.53;;;14.20;80.20;;;;;;5064415;28;20032;-72
2021/09/29 04:43:21;;;;;;;9.77;5.30;;;14.20;80.30;;;;;;5068000;28;20025;-72
2021/09/29 04:45:47;;;;;;;10.23;6.10;;;14.20;80.40;;;;;;5063711;28;20039;-73
2021/09/29 04:48:13;;;;;;;9.85;5.15;;;14.10;80.50;;;;;;5069053;28;20085;-72
2021/09/29 04:50:39;;;;;;;11.13;5.18;;;14.10;80.70;;;;;;5067506;28;20058;-72
2021/09/29 04:53:05;;;;;;;8.55;5.68;;;14.10;80.80;;;;;;5067701;28;20032;-73
2021/09/29 04:55:31;;;;;;;10.60;5.03;;;14.10;81.00;;;;;;5068912;28;20028;-72
2021/09/29 04:57:58;;;;;;;12.13;5.13;;;14.10;81.10;;;;;;5066458;28;20040;-73
2021/09/29 05:00:24;;;;;;;13.73;5.80;;;14.10;81.10;;;;;;5046645;28;20709;-73
2021/09/29 05:02:52;;;;;;;7.57;5.35;;;14.10;81.30;;;;;;5066538;28;20031;-72
2021/09/29 05:05:18;;;;;;;8.25;5.22;;;14.10;81.40;;;;;;5058691;28;20027;-72
2021/09/29 05:07:49;;;;;;;9.77;5.38;;;14.10;81.30;;;;;;5073904;28;20115;-72
2021/09/29 05:10:20;;;;;;;9.98;4.72;;;14.10;81.10;;;;;;5047698;28;20021;-72
2021/09/29 05:12:48;;;;;;;6.40;4.87;;;14.00;81.20;;;;;;5068045;28;20029;-72
2021/09/29 05:15:14;;;;;;;8.32;4.93;;;14.00;81.30;;;;;;5057740;28;20119;-72
2021/09/29 05:17:40;;;;;;;6.65;5.35;;;14.00;81.30;;;;;;5068324;28;20074;-73
2021/09/29 05:20:07;;;;;;;10.65;5.70;;;14.00;81.20;;;;;;5068179;28;20041;-72
2021/09/29 05:22:32;;;;;;;8.57;5.50;;;14.00;81.30;;;;;;5061445;28;20017;-71
2021/09/29 05:24:58;;;;;;;9.90;5.00;;;14.00;81.40;;;;;;5064633;28;20033;-73
2021/09/29 05:27:24;;;;;;;9.07;4.88;;;14.00;81.50;;;;;;5070333;28;20037;-72
2021/09/29 05:29:50;;;;;;;8.95;4.95;;;14.00;81.40;;;;;;5068022;28;20032;-72
2021/09/29 05:32:16;;;;;;;7.78;5.40;;;14.00;81.40;;;;;;5066284;28;20504;-73
2021/09/29 05:34:42;;;;;;;11.35;5.13;;;14.00;81.60;;;;;;5062951;28;20033;-72
2021/09/29 05:37:08;;;;;;;10.10;5.45;;;14.00;81.80;;;;;;5085379;28;20075;-71
2021/09/29 05:39:34;;;;;;;6.88;5.03;;;14.00;81.70;;;;;;5090816;28;20020;-71
2021/09/29 05:42:00;;;;;;;10.38;5.50;;;14.00;82.00;;;;;;5090705;28;20032;-70
2021/09/29 05:44:26;;;;;;;16.38;6.15;;;13.90;81.90;;;;;;5071677;28;20027;-71
2021/09/29 05:46:52;;;;;;;11.98;6.00;;;14.00;82.10;;;;;;5071164;28;20047;-71
2021/09/29 05:49:18;;;;;;;9.70;5.53;;;14.00;82.10;;;;;;5088333;28;20510;-71
2021/09/29 05:51:47;;;;;;;13.35;5.30;;;13.90;82.30;;;;;;5070967;28;20047;-71
2021/09/29 05:54:13;;;;;;;9.00;5.10;;;14.00;82.50;;;;;;5091097;28;20028;-73
2021/09/29 05:56:39;;;;;;;8.85;5.15;;;14.00;82.70;;;;;;5084337;28;20068;-71
2021/09/29 05:59:05;;;;;;;8.38;5.40;;;14.00;82.70;;;;;;5091176;28;20059;-71
2021/09/29 06:01:30;;;;;;;10.85;6.40;;;14.00;82.60;;;;;;5060110;28;20127;-71
2021/09/29 06:03:56;;;;;;;7.72;5.30;;;14.00;82.80;;;;;;5086825;28;20024;-71
2021/09/29 06:06:22;;;;;;;9.88;5.80;;;14.00;82.90;;;;;;5084844;28;20122;-73
2021/09/29 06:08:48;;;;;;;8.40;4.75;;;14.00;83.00;;;;;;5068308;28;20167;-73
2021/09/29 06:11:13;;;;;;;9.43;5.25;;;14.00;83.00;;;;;;5085980;28;20111;-73
2021/09/29 06:13:39;;;;;;;9.95;6.13;;;14.00;83.20;;;;;;5081234;28;20063;-73
2021/09/29 06:16:09;;;;;;;11.02;5.35;;;14.00;83.30;;;;;;5088877;28;20367;-73
2021/09/29 06:18:36;;;;;;;10.05;5.88;;;14.10;83.40;;;;;;5087505;28;20031;-74
2021/09/29 06:21:03;;;;;;;10.38;5.88;;;14.10;83.90;;;;;;5088520;28;20474;-72
2021/09/29 06:23:30;;;;;;;10.77;5.38;;;14.10;83.80;;;;;;5092606;28;20529;-74
2021/09/29 06:25:56;;;;;;;13.10;5.78;;;14.00;83.90;;;;;;5070558;28;20119;-73
2021/09/29 06:28:22;;;;;;;11.40;5.47;;;14.00;84.20;;;;;;5090423;28;20032;-74
2021/09/29 06:30:48;;;;;;;8.63;5.20;;;14.00;84.10;;;;;;5064656;28;20020;-71
2021/09/29 06:33:16;;;;;;;9.57;5.28;;;14.00;84.40;;;;;;5090361;28;20028;-71
2021/09/29 06:35:42;;;;;;;10.98;5.82;;;14.00;84.40;;;;;;5064209;28;20043;-73
2021/09/29 06:38:10;;;;;;;9.43;5.60;;;14.00;84.70;;;;;;5072446;28;20032;-71
2021/09/29 06:40:35;;;;;;;8.90;4.85;;;14.00;84.90;;;;;;5068863;28;20024;-73
2021/09/29 06:43:04;;;;;;;11.95;5.90;;;14.00;84.90;;;;;;5053431;28;20043;-71
2021/09/29 06:45:31;;;;;;;8.57;5.18;;;13.90;84.80;;;;;;5075929;28;20039;-73
2021/09/29 06:47:57;;;;;;;7.13;4.80;;;13.90;85.00;;;;;;5060400;28;20066;-73
2021/09/29 06:50:23;;;;;;;10.55;5.70;;;13.90;85.10;;;;;;5056574;28;20028;-73
2021/09/29 06:52:49;;;;;;;8.50;5.40;;;14.00;85.20;;;;;;5088642;28;20037;-73
2021/09/29 06:55:15;;;;;;;8.70;5.25;;;14.00;85.50;;;;;;5067772;28;20024;-71
2021/09/29 06:57:41;;;;;;;9.00;5.13;;;14.00;85.50;;;;;;5082642;28;20020;-73
2021/09/29 07:00:09;;;;;;;8.68;5.10;;;14.00;85.60;;;;;;5067974;28;20039;-73
2021/09/29 07:02:44;;;;;;;9.75;4.78;;;14.00;85.40;;;;;;5046024;28;20021;-73
2021/09/29 07:05:11;;;;;;;13.43;6.18;;;14.10;85.50;;;;;;5083959;28;20023;-73
2021/09/29 07:07:37;;;;;;;6.35;4.88;;;14.10;85.60;;;;;;5071288;28;20111;-73
2021/09/29 07:10:04;;;;;;;8.45;4.63;;;14.10;85.60;;;;;;5070200;28;20547;-73
2021/09/29 07:12:30;;;;;;;8.57;5.18;;;14.00;85.60;;;;;;5069687;28;20542;-74
2021/09/29 07:14:56;;;;;;;10.23;5.97;;;14.10;85.80;;;;;;5052547;28;20047;-73
2021/09/29 07:17:24;;;;;;;9.75;5.25;;;14.10;85.70;;;;;;5069715;28;20053;-73
2021/09/29 07:19:55;;;;;;;9.65;5.30;;;14.10;85.70;;;;;;5087600;28;20534;-73
2021/09/29 07:22:20;;;;;;;10.38;5.05;;;14.10;85.70;;;;;;5087694;28;20518;-73
2021/09/29 07:24:46;;;;;;;8.93;5.30;;;14.10;86.00;;;;;;5084484;28;20028;-73
2021/09/29 07:27:12;;;;;;;8.43;5.07;;;14.10;85.90;;;;;;5087591;28;20035;-74
2021/09/29 07:29:38;;;;;;;11.48;5.35;;;14.10;85.90;;;;;;5080103;28;20028;-71
2021/09/29 07:32:04;;;;;;;7.80;4.82;;;14.00;86.10;;;;;;5055626;28;20086;-71
2021/09/29 07:34:29;;;;;;;7.78;4.88;;;14.10;86.20;;;;;;5081810;28;20555;-70
2021/09/29 07:36:55;;;;;;;8.23;4.88;;;14.10;86.50;;;;;;5065483;28;20079;-70
2021/09/29 07:39:20;;;;;;;9.05;4.43;;;14.00;86.50;;;;;;5066108;28;20047;-71
2021/09/29 07:41:46;;;;;;;7.30;5.05;;;14.00;86.50;;;;;;5069659;28;20025;-71
2021/09/29 07:44:13;;;;;;;7.80;5.00;;;14.10;86.70;;;;;;5054396;28;20036;-74
2021/09/29 07:46:39;;;;;;;8.30;4.60;;;14.10;86.70;;;;;;5083516;28;20016;-74
2021/09/29 07:49:04;;;;;;;8.75;4.65;;;14.10;87.20;;;;;;5055839;28;20130;-74
2021/09/29 07:51:30;;;;;;;10.10;4.85;;;14.10;86.90;;;;;;5083164;28;20024;-71
2021/09/29 07:53:56;;;;;;;7.20;4.45;;;14.10;86.90;;;;;;5080319;28;20101;-71
2021/09/29 07:56:21;;;;;;;6.65;4.00;;;14.10;86.90;;;;;;5083891;28;20120;-73
2021/09/29 07:58:47;;;;;;;7.55;4.22;;;14.00;86.80;;;;;;5083224;28;20058;-74
2021/09/29 08:01:13;;;;;;;6.10;4.07;;;14.10;87.00;;;;;;5055504;28;20115;-74
2021/09/29 08:03:42;;;;;;;9.73;4.40;;;14.00;87.20;;;;;;5067353;28;20024;-71
2021/09/29 08:06:08;;;;;;;5.53;3.78;;;14.00;87.40;;;;;;5086078;28;20036;-74
2021/09/29 08:08:34;;;;;;;6.28;3.38;;;14.00;87.50;;;;;;5068415;28;20043;-74
2021/09/29 08:11:00;;;;;;;6.78;3.75;;;14.00;87.50;;;;;;5094234;28;20070;-71
2021/09/29 08:13:25;;;;;;;5.25;3.28;;;14.00;87.70;;;;;;5070962;28;20432;-74
2021/09/29 08:15:51;;;;;;;5.45;3.38;;;13.90;87.70;;;;;;5068686;28;20028;-74
2021/09/29 08:18:17;;;;;;;7.85;3.95;;;13.90;87.80;;;;;;5088574;28;20024;-71
2021/09/29 08:20:43;;;;;;;7.00;3.88;;;13.90;88.00;;;;;;5067947;28;20033;-71
2021/09/29 08:31:01;;;;;;;5.93;3.67;;;14.00;88.00;;;;;;5068181;28;20503;-71
2021/09/29 08:33:49;;;;;;;5.50;3.97;;;14.00;88.10;;;;;;5069774;28;20036;-71
2021/09/29 08:36:26;;;;;;;5.70;3.92;;;14.00;88.10;;;;;;5072514;28;20449;-71
2021/09/29 08:38:56;;;;;;;8.77;4.63;;;14.10;88.30;;;;;;5052398;28;20115;-71
2021/09/29 08:44:01;;;;;;;6.40;3.50;;;14.00;88.60;;;;;;5082647;28;20114;-72
2021/09/29 08:46:33;;;;;;;7.70;3.90;;;14.00;88.50;;;;;;5051237;28;20351;-71
2021/09/29 08:49:16;;;;;;;5.00;3.97;;;14.00;88.40;;;;;;5063174;28;20053;-71
2021/09/29 08:52:08;;;;;;;;;;;14.00;88.40;;;;;;5066611;28;20494;-72
2021/09/29 09:16:40;;;;;;;5.65;4.95;;;14.10;88.70;;;;;;5081579;28;20047;-72
2021/09/29 09:19:09;;;;;;;7.70;4.82;;;14.00;88.50;;;;;;5083657;28;20024;-72
2021/09/29 09:21:42;;;;;;;5.97;4.80;;;14.00;88.10;;;;;;5077041;28;20381;-72
2021/09/29 09:24:18;;;;;;;5.90;5.03;;;14.00;88.20;;;;;;5077444;28;20021;-74
2021/09/29 09:26:44;;;;;;;6.63;4.53;;;14.00;87.90;;;;;;5072343;28;20036;-74
2021/09/29 09:29:12;;;;;;;6.15;4.50;;;14.10;87.80;;;;;;5077797;28;20024;-74
2021/09/29 09:31:39;;;;;;;6.57;5.20;;;14.10;87.60;;;;;;5077570;28;20112;-71
2021/09/29 09:34:08;;;;;;;6.40;4.90;;;14.00;87.20;;;;;;5061491;28;20082;-72
2021/09/29 09:36:39;;;;;;;7.53;5.60;;;14.00;86.90;;;;;;5078784;28;20079;-72
2021/09/29 09:39:09;;;;;;;4.90;4.47;;;14.00;86.90;;;;;;5084585;28;20091;-74
2021/09/29 09:41:36;;;;;;;5.47;4.68;;;14.00;86.30;;;;;;5078173;28;20103;-74
2021/09/29 09:44:04;;;;;;;4.15;3.75;;;14.00;86.00;;;;;;5087785;28;20146;-74
2021/09/29 09:46:31;;;;;;;7.60;4.28;;;14.00;86.10;;;;;;5073821;28;20029;-74
2021/09/29 09:49:09;;;;;;;5.22;4.72;;;14.00;86.00;;;;;;5071831;28;20143;-72
2021/09/29 09:51:49;;;;;;;5.03;4.63;;;13.90;85.70;;;;;;5084831;28;20024;-74
2021/09/29 09:54:16;;;;;;;4.18;3.88;;;13.90;86.10;;;;;;5071607;28;20024;-74
2021/09/29 09:56:52;;;;;;;4.85;4.45;;;13.90;86.20;;;;;;5078025;28;20057;-71
2021/09/29 09:59:18;;;;;;;5.80;5.30;;;13.90;86.30;;;;;;5083926;28;20028;-71
2021/09/29 10:01:45;;;;;;;8.25;5.25;;;13.90;86.20;;;;;;5054203;28;20033;-72
2021/09/29 10:04:13;;;;;;;6.20;5.10;;;13.80;86.10;;;;;;5080451;28;20024;-71
2021/09/29 10:06:39;;;;;;;5.57;5.07;;;13.80;86.30;;;;;;5090162;28;20482;-71
2021/09/29 10:09:24;;;;;;;5.57;5.05;;;13.80;86.50;;;;;;5081853;28;20031;-72
2021/09/29 10:12:00;;;;;;;9.35;4.35;;;13.80;86.40;;;;;;5078572;28;20389;-71
2021/09/29 10:14:43;;;;;;;6.70;4.50;;;13.80;86.50;;;;;;5065544;28;20385;-74
2021/09/29 10:28:19;;;;;;;3.75;3.45;;;13.60;86.60;;;;;;5021418;28;20038;-73
2021/09/29 10:33:28;;;;;;;3.30;3.00;;;13.60;86.70;;;;;;5094048;28;20501;-71
2021/09/29 10:36:45;;;;;;;3.95;3.55;;;13.60;86.60;;;;;;5094894;28;20043;-73
2021/09/29 11:04:33;;;;;;;3.10;2.38;;;13.50;87.00;;;;;;5093459;28;20182;-71
2021/09/29 11:31:39;;;;;;;;;;;13.50;86.50;;;;;;5044266;28;20043;-71
2021/09/29 11:34:30;;;;;;;1.60;1.25;;;13.40;86.80;;;;;;5086307;28;20002;-71
2021/09/29 12:10:17;;;;;;;1.52;1.23;;;13.40;85.30;;;;;;5085371;28;20470;-70
2021/09/29 12:12:23;;;;;;;4.20;1.30;;;13.40;85.80;;;;;;5064395;28;20044;-70
2021/09/29 12:14:55;;;;;;;2.08;1.30;;;13.50;85.90;;;;;;5082826;28;20024;-73
2021/09/29 12:17:32;;;;;;;1.50;1.10;;;13.50;85.90;;;;;;5090112;28;20026;-73
2021/09/29 12:20:00;;;;;;;3.75;1.50;;;13.60;85.80;;;;;;5082699;28;20089;-72
2021/09/29 12:22:32;;;;;;;2.78;1.30;;;13.70;85.80;;;;;;5068467;28;20068;-71
2021/09/29 12:25:17;;;;;;;2.03;1.10;;;13.80;85.90;;;;;;5079950;28;20038;-71
2021/09/29 12:30:29;;;;;;;2.45;0.80;;;13.90;84.90;;;;;;5069356;28;20032;-75
2021/09/29 12:38:38;;;;;;;1.38;0.70;;;13.70;83.80;;;;;;5037042;28;20581;-71
2021/09/29 12:41:05;;;;;;;1.75;0.90;;;13.60;83.10;;;;;;5081975;28;20362;-70
2021/09/29 12:43:31;;;;;;;1.60;0.90;;;13.60;83.40;;;;;;5091823;28;20106;-71
2021/09/29 12:46:00;;;;;;;1.50;0.70;;;13.60;83.50;;;;;;5088108;28;20149;-71
2021/09/29 12:48:28;;;;;;;1.15;0.70;;;13.60;83.60;;;;;;5066793;28;20020;-73
2021/09/29 12:51:03;;;;;;;1.05;0.80;;;13.70;83.40;;;;;;5072377;28;20051;-73
2021/09/29 12:58:29;;;;;;;2.53;0.80;;;13.70;82.80;;;;;;5083771;28;20027;-75
2021/09/29 13:00:57;;;;;;;2.00;1.00;;;13.70;82.80;;;;;;5060495;28;20024;-73
2021/09/29 13:03:23;;;;;;;1.77;1.20;;;13.70;83.10;;;;;;5051733;28;20065;-74
2021/09/29 13:05:49;;;;;;;3.08;1.10;;;13.70;83.90;;;;;;5082241;28;20032;-72
2021/09/29 13:08:15;;;;;;;2.00;1.20;;;13.70;83.70;;;;;;5086905;28;20108;-74
2021/09/29 13:10:42;;;;;;;4.50;1.27;;;13.70;84.00;;;;;;5078210;28;20115;-71
2021/09/29 13:13:10;;;;;;;2.10;1.27;;;13.70;84.40;;;;;;5059535;28;20521;-71
2021/09/29 13:15:40;;;;;;;4.45;1.48;;;13.80;84.60;;;;;;5084091;28;20639;-71
2021/09/29 13:18:09;;;;;;;3.22;1.50;;;13.90;84.80;;;;;;5085272;28;20035;-71
2021/09/29 13:20:36;;;;;;;4.05;1.50;;;14.00;84.40;;;;;;5078911;28;20039;-74
2021/09/29 13:23:09;;;;;;;3.40;1.63;;;14.00;84.50;;;;;;5074824;28;20023;-74
2021/09/29 13:36:39;;;;;;;3.67;1.40;;;14.80;83.80;;;;;;5088568;28;20051;-73
2021/09/29 13:39:16;;;;;;;4.53;1.38;;;15.10;83.50;;;;;;5057127;28;20494;-72
2021/09/29 13:41:44;;;;;;;5.25;1.70;;;15.40;84.60;;;;;;5096518;28;20410;-72
2021/09/29 13:44:10;;;;;;;4.68;1.45;;;16.00;84.70;;;;;;5079300;28;20017;-68
2021/09/29 13:46:38;;;;;;;4.32;1.73;;;16.60;83.50;;;;;;5073828;28;20487;-71
2021/09/29 13:49:06;;;;;;;5.32;1.65;;;17.30;77.60;;;;;;5095130;28;20032;-71
2021/09/29 13:51:36;;;;;;;4.75;1.45;;;17.60;76.60;;;;;;5093536;28;20074;-71
2021/09/29 13:54:07;;;;;;;2.75;1.10;;;17.90;73.10;;;;;;5090026;28;20398;-73
2021/09/29 13:56:58;;;;;;;3.53;1.08;;;18.20;67.50;;;;;;5058077;28;20036;-71
2021/09/29 14:31:12;;;;;;;5.53;0.90;;;19.20;63.60;;;;;;5053571;28;20047;-71
2021/09/29 14:33:46;;;;;;;4.07;0.90;;;20.30;58.40;;;;;;5079943;28;20040;-71
2021/09/29 14:36:15;;;;;;;4.28;1.10;;;21.10;54.90;;;;;;5082081;28;20073;-72
2021/09/29 14:38:41;;;;;;;1.80;1.00;;;22.00;53.60;;;;;;5087501;28;20125;-73
2021/09/29 14:41:06;;;;;;;3.72;1.13;;;23.10;52.30;;;;;;5085196;28;20021;-73
2021/09/29 14:43:32;;;;;;;7.20;1.10;;;24.10;51.50;;;;;;5078600;28;20028;-73
2021/09/29 14:45:58;;;;;;;5.30;0.95;;;23.90;47.80;;;;;;5062471;28;20028;-72
2021/09/29 14:48:23;;;;;;;3.13;1.08;;;22.60;50.60;;;;;;5077148;28;20138;-71
2021/09/29 14:50:50;;;;;;;3.03;0.95;;;21.10;53.00;;;;;;5082938;28;20439;-71
2021/09/29 14:53:16;;;;;;;7.90;0.80;;;20.00;57.00;;;;;;5083685;28;20037;-71
2021/09/29 14:55:42;;;;;;;2.45;0.50;;;19.00;58.00;;;;;;5087557;28;20089;-71
2021/09/29 14:58:08;;;;;;;2.10;0.70;;;18.20;60.20;;;;;;5084059;28;20591;-70
2021/09/29 15:00:34;;;;;;;2.28;0.70;;;17.60;62.10;;;;;;5080651;28;20482;-73
2021/09/29 15:03:00;;;;;;;1.38;0.60;;;17.20;63.80;;;;;;5060147;28;20024;-70
2021/09/29 15:05:27;;;;;;;3.45;0.93;;;16.80;64.90;;;;;;5044630;28;20405;-71
2021/09/29 15:07:53;;;;;;;3.85;0.70;;;16.50;65.70;;;;;;5081583;28;20032;-71
2021/09/29 15:10:19;;;;;;;4.53;0.80;;;16.20;66.70;;;;;;5084315;28;20036;-70
2021/09/29 15:12:45;;;;;;;2.50;0.90;;;15.90;67.80;;;;;;5081594;28;20376;-73
2021/09/29 15:17:45;;;;;;;3.58;1.23;;;15.60;69.20;;;;;;5084021;28;20525;-73
2021/09/29 15:23:14;;;;;;;2.70;0.80;;;15.50;70.00;;;;;;5072342;28;20047;-70
2021/09/29 15:47:20;;;;;;;2.58;1.00;;;14.60;72.60;;;;;;5061068;28;20093;-72
2021/09/29 15:52:50;;;;;;;4.15;0.98;;;14.40;73.60;;;;;;5069434;28;20473;-69
2021/09/29 16:24:02;;;;;;;3.00;1.00;;;13.70;75.50;;;;;;5087740;28;20035;-70
2021/09/29 16:32:08;;;;;;;2.38;1.02;;;13.70;75.40;;;;;;5075596;28;20047;-70
2021/09/29 16:34:44;;;;;;;2.17;0.95;;;13.70;75.50;;;;;;5084042;28;20429;-71
2021/09/29 16:37:10;;;;;;;4.78;2.03;;;13.70;75.10;;;;;;5082098;28;20130;-71
2021/09/29 16:39:36;;;;;;;3.88;1.25;;;13.70;75.40;;;;;;5053284;28;20111;-71
2021/09/29 16:42:02;;;;;;;3.83;0.90;;;13.70;75.40;;;;;;5060775;28;20152;-71
2021/09/29 16:44:27;;;;;;;3.63;1.10;;;13.80;75.40;;;;;;5077984;28;20032;-70
2021/09/29 16:46:55;;;;;;;3.05;0.93;;;13.80;75.30;;;;;;5055203;28;20044;-70
2021/09/29 16:49:24;;;;;;;2.95;0.85;;;13.80;74.60;;;;;;5086109;28;20035;-70
2021/09/29 16:52:09;;;;;;;2.88;1.08;;;13.70;74.70;;;;;;5066366;28;20032;-72
2021/09/29 16:54:35;;;;;;;3.10;0.90;;;13.60;75.20;;;;;;5063419;28;20419;-72
2021/09/29 16:57:06;;;;;;;1.65;1.10;;;13.60;75.10;;;;;;5068136;28;20570;-70
2021/09/29 17:02:10;;;;;;;2.00;0.80;;;13.60;75.20;;;;;;5067403;28;20040;-72
2021/09/29 17:04:36;;;;;;;2.83;0.80;;;13.50;74.90;;;;;;5080773;28;20421;-72
2021/09/29 17:07:01;;;;;;;3.15;0.90;;;13.40;75.40;;;;;;5086898;28;20028;-72